sensor_id;sensor_type;location;lat;lon;timestamp;P1;durP1;ratioP1;P2;durP2;ratioP2
31716;SDS011;18301;51.076;17.046;2022-07-10T00:00:42;3.78;;;2.10;;
31716;SDS011;18301;51.076;17.046;2022-07-10T00:05:44;2.95;;;1.90;;
31716;SDS011;18301;51.076;17.046;2022-07-10T00:10:45;3.65;;;2.15;;
31716;SDS011;18301;51.076;17.046;2022-07-10T00:15:47;2.20;;;1.70;;
31716;SDS011;18301;51.076;17.046;2022-07-10T00:20:48;3.33;;;2.15;;
31716;SDS011;18301;51.076;17.046;2022-07-10T00:25:50;4.78;;;2.05;;
31716;SDS011;18301;51.076;17.046;2022-07-10T00:30:51;5.82;;;2.30;;
31716;SDS011;18301;51.076;17.046;2022-07-10T00:35:53;2.75;;;1.98;;
31716;SDS011;18301;51.076;17.046;2022-07-10T00:40:55;3.45;;;2.20;;
31716;SDS011;18301;51.076;17.046;2022-07-10T00:45:56;3.40;;;2.17;;
31716;SDS011;18301;51.076;17.046;2022-07-10T00:50:58;3.65;;;2.38;;
31716;SDS011;18301;51.076;17.046;2022-07-10T00:55:59;5.78;;;2.70;;
31716;SDS011;18301;51.076;17.046;2022-07-10T01:01:01;4.03;;;2.50;;
31716;SDS011;18301;51.076;17.046;2022-07-10T01:06:03;4.10;;;2.60;;
31716;SDS011;18301;51.076;17.046;2022-07-10T01:11:05;3.40;;;2.63;;
31716;SDS011;18301;51.076;17.046;2022-07-10T01:16:07;4.80;;;2.53;;
31716;SDS011;18301;51.076;17.046;2022-07-10T01:21:25;3.80;;;2.70;;
31716;SDS011;18301;51.076;17.046;2022-07-10T01:26:27;3.25;;;2.70;;
31716;SDS011;18301;51.076;17.046;2022-07-10T01:31:29;4.38;;;3.33;;
31716;SDS011;18301;51.076;17.046;2022-07-10T01:36:31;5.78;;;3.08;;
31716;SDS011;18301;51.076;17.046;2022-07-10T01:41:33;5.55;;;2.90;;
31716;SDS011;18301;51.076;17.046;2022-07-10T01:46:42;4.20;;;2.50;;
31716;SDS011;18301;51.076;17.046;2022-07-10T01:51:44;3.90;;;2.90;;
31716;SDS011;18301;51.076;17.046;2022-07-10T01:56:45;3.97;;;2.80;;
31716;SDS011;18301;51.076;17.046;2022-07-10T02:01:47;6.50;;;2.70;;
31716;SDS011;18301;51.076;17.046;2022-07-10T02:06:48;4.47;;;2.60;;
31716;SDS011;18301;51.076;17.046;2022-07-10T02:11:50;6.03;;;2.88;;
31716;SDS011;18301;51.076;17.046;2022-07-10T02:16:51;4.95;;;3.10;;
31716;SDS011;18301;51.076;17.046;2022-07-10T02:21:53;4.25;;;2.63;;
31716;SDS011;18301;51.076;17.046;2022-07-10T02:26:56;3.95;;;2.65;;
31716;SDS011;18301;51.076;17.046;2022-07-10T02:31:58;4.00;;;2.80;;
31716;SDS011;18301;51.076;17.046;2022-07-10T02:37:00;3.38;;;2.05;;
31716;SDS011;18301;51.076;17.046;2022-07-10T02:42:01;3.33;;;2.70;;
31716;SDS011;18301;51.076;17.046;2022-07-10T02:47:03;4.78;;;2.60;;
31716;SDS011;18301;51.076;17.046;2022-07-10T02:52:05;4.85;;;2.83;;
31716;SDS011;18301;51.076;17.046;2022-07-10T02:57:06;5.53;;;2.10;;
31716;SDS011;18301;51.076;17.046;2022-07-10T03:02:08;6.30;;;2.70;;
31716;SDS011;18301;51.076;17.046;2022-07-10T03:07:09;4.85;;;2.30;;
31716;SDS011;18301;51.076;17.046;2022-07-10T03:12:11;4.40;;;2.63;;
31716;SDS011;18301;51.076;17.046;2022-07-10T03:17:13;4.13;;;2.67;;
31716;SDS011;18301;51.076;17.046;2022-07-10T03:22:14;3.95;;;2.65;;
31716;SDS011;18301;51.076;17.046;2022-07-10T03:27:16;3.15;;;2.65;;
31716;SDS011;18301;51.076;17.046;2022-07-10T03:32:17;4.70;;;2.60;;
31716;SDS011;18301;51.076;17.046;2022-07-10T03:37:19;3.45;;;2.63;;
31716;SDS011;18301;51.076;17.046;2022-07-10T03:42:21;4.40;;;2.17;;
31716;SDS011;18301;51.076;17.046;2022-07-10T03:47:22;3.22;;;2.30;;
31716;SDS011;18301;51.076;17.046;2022-07-10T03:52:24;6.22;;;2.42;;
31716;SDS011;18301;51.076;17.046;2022-07-10T03:57:25;5.13;;;2.20;;
31716;SDS011;18301;51.076;17.046;2022-07-10T04:02:45;7.70;;;3.10;;
31716;SDS011;18301;51.076;17.046;2022-07-10T04:07:47;6.60;;;2.30;;
31716;SDS011;18301;51.076;17.046;2022-07-10T04:12:48;4.18;;;2.20;;
31716;SDS011;18301;51.076;17.046;2022-07-10T04:17:50;5.65;;;2.22;;
31716;SDS011;18301;51.076;17.046;2022-07-10T04:22:52;3.63;;;2.30;;
31716;SDS011;18301;51.076;17.046;2022-07-10T04:27:54;5.03;;;2.40;;
31716;SDS011;18301;51.076;17.046;2022-07-10T04:32:55;4.35;;;1.88;;
31716;SDS011;18301;51.076;17.046;2022-07-10T04:37:57;6.07;;;2.17;;
31716;SDS011;18301;51.076;17.046;2022-07-10T04:42:59;4.30;;;2.03;;
31716;SDS011;18301;51.076;17.046;2022-07-10T04:48:00;4.53;;;1.83;;
31716;SDS011;18301;51.076;17.046;2022-07-10T04:53:02;3.40;;;1.85;;
31716;SDS011;18301;51.076;17.046;2022-07-10T04:58:03;3.17;;;1.52;;
31716;SDS011;18301;51.076;17.046;2022-07-10T05:03:05;4.40;;;1.83;;
31716;SDS011;18301;51.076;17.046;2022-07-10T05:08:06;5.00;;;2.13;;
31716;SDS011;18301;51.076;17.046;2022-07-10T05:13:08;2.58;;;1.98;;
31716;SDS011;18301;51.076;17.046;2022-07-10T05:18:11;4.10;;;1.70;;
31716;SDS011;18301;51.076;17.046;2022-07-10T05:23:13;3.30;;;2.05;;
31716;SDS011;18301;51.076;17.046;2022-07-10T05:28:14;3.67;;;1.63;;
31716;SDS011;18301;51.076;17.046;2022-07-10T05:33:16;3.40;;;1.50;;
31716;SDS011;18301;51.076;17.046;2022-07-10T05:38:18;5.32;;;1.40;;
31716;SDS011;18301;51.076;17.046;2022-07-10T05:43:19;4.53;;;1.67;;
31716;SDS011;18301;51.076;17.046;2022-07-10T05:48:21;5.25;;;1.20;;
31716;SDS011;18301;51.076;17.046;2022-07-10T05:53:22;7.25;;;1.50;;
31716;SDS011;18301;51.076;17.046;2022-07-10T05:58:24;3.28;;;1.38;;
31716;SDS011;18301;51.076;17.046;2022-07-10T06:03:25;5.22;;;1.30;;
31716;SDS011;18301;51.076;17.046;2022-07-10T06:08:27;4.57;;;1.20;;
31716;SDS011;18301;51.076;17.046;2022-07-10T06:13:28;3.75;;;1.27;;
31716;SDS011;18301;51.076;17.046;2022-07-10T06:18:30;4.70;;;1.00;;
31716;SDS011;18301;51.076;17.046;2022-07-10T06:23:32;3.05;;;1.20;;
31716;SDS011;18301;51.076;17.046;2022-07-10T06:28:34;3.83;;;1.15;;
31716;SDS011;18301;51.076;17.046;2022-07-10T06:33:37;5.45;;;1.58;;
31716;SDS011;18301;51.076;17.046;2022-07-10T06:38:38;3.42;;;1.10;;
31716;SDS011;18301;51.076;17.046;2022-07-10T06:43:41;3.90;;;1.35;;
31716;SDS011;18301;51.076;17.046;2022-07-10T06:48:43;3.90;;;1.10;;
31716;SDS011;18301;51.076;17.046;2022-07-10T06:53:45;3.30;;;1.10;;
31716;SDS011;18301;51.076;17.046;2022-07-10T06:58:46;2.35;;;1.20;;
31716;SDS011;18301;51.076;17.046;2022-07-10T07:03:54;3.20;;;1.10;;
31716;SDS011;18301;51.076;17.046;2022-07-10T07:08:56;3.58;;;1.17;;
31716;SDS011;18301;51.076;17.046;2022-07-10T07:13:57;5.35;;;1.45;;
31716;SDS011;18301;51.076;17.046;2022-07-10T07:18:59;2.60;;;0.90;;
31716;SDS011;18301;51.076;17.046;2022-07-10T07:24:01;3.20;;;1.00;;
31716;SDS011;18301;51.076;17.046;2022-07-10T07:29:02;4.53;;;1.10;;
31716;SDS011;18301;51.076;17.046;2022-07-10T07:34:04;5.22;;;1.17;;
31716;SDS011;18301;51.076;17.046;2022-07-10T07:39:06;2.05;;;1.02;;
31716;SDS011;18301;51.076;17.046;2022-07-10T07:44:08;5.80;;;1.55;;
31716;SDS011;18301;51.076;17.046;2022-07-10T07:49:09;2.63;;;1.00;;
31716;SDS011;18301;51.076;17.046;2022-07-10T07:54:11;3.42;;;1.20;;
31716;SDS011;18301;51.076;17.046;2022-07-10T07:59:12;5.30;;;1.20;;
31716;SDS011;18301;51.076;17.046;2022-07-10T08:04:14;3.83;;;1.20;;
31716;SDS011;18301;51.076;17.046;2022-07-10T08:09:15;4.38;;;1.33;;
31716;SDS011;18301;51.076;17.046;2022-07-10T08:14:17;4.15;;;1.30;;
31716;SDS011;18301;51.076;17.046;2022-07-10T08:19:18;3.42;;;1.17;;
31716;SDS011;18301;51.076;17.046;2022-07-10T08:24:20;6.15;;;1.30;;
31716;SDS011;18301;51.076;17.046;2022-07-10T08:29:21;2.38;;;1.25;;
31716;SDS011;18301;51.076;17.046;2022-07-10T08:34:23;3.35;;;1.48;;
31716;SDS011;18301;51.076;17.046;2022-07-10T08:39:24;4.47;;;1.20;;
31716;SDS011;18301;51.076;17.046;2022-07-10T08:44:27;3.10;;;1.00;;
31716;SDS011;18301;51.076;17.046;2022-07-10T08:49:30;4.25;;;0.70;;
31716;SDS011;18301;51.076;17.046;2022-07-10T08:54:33;2.25;;;0.88;;
31716;SDS011;18301;51.076;17.046;2022-07-10T08:59:34;1.45;;;0.80;;
31716;SDS011;18301;51.076;17.046;2022-07-10T09:04:36;2.45;;;0.80;;
31716;SDS011;18301;51.076;17.046;2022-07-10T09:09:53;3.83;;;1.00;;
31716;SDS011;18301;51.076;17.046;2022-07-10T09:15:06;2.60;;;0.85;;
31716;SDS011;18301;51.076;17.046;2022-07-10T09:20:23;2.40;;;0.80;;
31716;SDS011;18301;51.076;17.046;2022-07-10T09:25:29;2.95;;;1.25;;
31716;SDS011;18301;51.076;17.046;2022-07-10T09:30:33;2.83;;;1.00;;
31716;SDS011;18301;51.076;17.046;2022-07-10T09:35:54;2.00;;;1.20;;
31716;SDS011;18301;51.076;17.046;2022-07-10T09:41:26;0.85;;;0.40;;
31716;SDS011;18301;51.076;17.046;2022-07-10T09:46:33;0.88;;;0.55;;
31716;SDS011;18301;51.076;17.046;2022-07-10T09:51:35;1.33;;;0.70;;
31716;SDS011;18301;51.076;17.046;2022-07-10T09:56:50;1.95;;;0.70;;
31716;SDS011;18301;51.076;17.046;2022-07-10T10:01:57;1.05;;;0.50;;
31716;SDS011;18301;51.076;17.046;2022-07-10T10:07:01;1.58;;;0.60;;
31716;SDS011;18301;51.076;17.046;2022-07-10T10:12:14;2.72;;;0.73;;
31716;SDS011;18301;51.076;17.046;2022-07-10T10:17:18;3.05;;;0.80;;
31716;SDS011;18301;51.076;17.046;2022-07-10T10:22:20;3.92;;;0.95;;
31716;SDS011;18301;51.076;17.046;2022-07-10T10:27:23;1.83;;;0.82;;
31716;SDS011;18301;51.076;17.046;2022-07-10T10:32:25;3.47;;;1.05;;
31716;SDS011;18301;51.076;17.046;2022-07-10T10:42:42;1.95;;;1.20;;
31716;SDS011;18301;51.076;17.046;2022-07-10T10:47:56;4.15;;;1.00;;
31716;SDS011;18301;51.076;17.046;2022-07-10T10:53:19;1.10;;;0.90;;
31716;SDS011;18301;51.076;17.046;2022-07-10T10:58:22;4.15;;;1.00;;
31716;SDS011;18301;51.076;17.046;2022-07-10T11:03:25;1.55;;;0.88;;
31716;SDS011;18301;51.076;17.046;2022-07-10T11:08:42;1.98;;;0.60;;
31716;SDS011;18301;51.076;17.046;2022-07-10T11:13:45;1.80;;;0.65;;
31716;SDS011;18301;51.076;17.046;2022-07-10T11:18:51;0.82;;;0.43;;
31716;SDS011;18301;51.076;17.046;2022-07-10T11:29:43;2.20;;;0.60;;
31716;SDS011;18301;51.076;17.046;2022-07-10T11:34:55;1.77;;;0.63;;
31716;SDS011;18301;51.076;17.046;2022-07-10T11:40:09;1.98;;;0.50;;
31716;SDS011;18301;51.076;17.046;2022-07-10T11:45:29;2.38;;;0.70;;
31716;SDS011;18301;51.076;17.046;2022-07-10T11:50:35;0.93;;;0.60;;
31716;SDS011;18301;51.076;17.046;2022-07-10T11:55:38;1.58;;;0.80;;
31716;SDS011;18301;51.076;17.046;2022-07-10T12:00:42;1.40;;;0.77;;
31716;SDS011;18301;51.076;17.046;2022-07-10T12:05:44;3.95;;;1.02;;
31716;SDS011;18301;51.076;17.046;2022-07-10T12:10:46;1.90;;;0.88;;
31716;SDS011;18301;51.076;17.046;2022-07-10T12:15:47;6.05;;;0.70;;
31716;SDS011;18301;51.076;17.046;2022-07-10T12:20:49;2.75;;;0.77;;
31716;SDS011;18301;51.076;17.046;2022-07-10T12:25:53;1.65;;;0.70;;
31716;SDS011;18301;51.076;17.046;2022-07-10T12:30:57;1.85;;;1.08;;
31716;SDS011;18301;51.076;17.046;2022-07-10T12:35:58;1.75;;;0.90;;
31716;SDS011;18301;51.076;17.046;2022-07-10T12:51:21;1.77;;;0.90;;
31716;SDS011;18301;51.076;17.046;2022-07-10T13:01:43;3.60;;;0.82;;
31716;SDS011;18301;51.076;17.046;2022-07-10T13:06:45;3.15;;;1.10;;
31716;SDS011;18301;51.076;17.046;2022-07-10T13:11:47;2.75;;;0.95;;
31716;SDS011;18301;51.076;17.046;2022-07-10T13:16:49;2.45;;;0.80;;
31716;SDS011;18301;51.076;17.046;2022-07-10T13:21:51;1.58;;;0.95;;
31716;SDS011;18301;51.076;17.046;2022-07-10T13:26:53;2.67;;;0.85;;
31716;SDS011;18301;51.076;17.046;2022-07-10T13:31:59;2.40;;;0.80;;
31716;SDS011;18301;51.076;17.046;2022-07-10T13:37:01;3.08;;;0.73;;
31716;SDS011;18301;51.076;17.046;2022-07-10T13:42:02;3.92;;;0.80;;
31716;SDS011;18301;51.076;17.046;2022-07-10T13:47:04;2.88;;;0.90;;
31716;SDS011;18301;51.076;17.046;2022-07-10T13:52:06;4.40;;;0.88;;
31716;SDS011;18301;51.076;17.046;2022-07-10T13:57:08;3.50;;;0.80;;
31716;SDS011;18301;51.076;17.046;2022-07-10T14:02:09;2.60;;;0.77;;
31716;SDS011;18301;51.076;17.046;2022-07-10T14:07:16;3.55;;;1.00;;
31716;SDS011;18301;51.076;17.046;2022-07-10T14:12:19;2.45;;;1.13;;
31716;SDS011;18301;51.076;17.046;2022-07-10T14:17:20;2.40;;;1.05;;
31716;SDS011;18301;51.076;17.046;2022-07-10T14:22:22;4.20;;;0.80;;
31716;SDS011;18301;51.076;17.046;2022-07-10T14:27:24;1.35;;;0.82;;
31716;SDS011;18301;51.076;17.046;2022-07-10T14:32:25;5.15;;;1.33;;
31716;SDS011;18301;51.076;17.046;2022-07-10T14:37:27;2.55;;;1.05;;
31716;SDS011;18301;51.076;17.046;2022-07-10T14:42:29;4.20;;;0.75;;
31716;SDS011;18301;51.076;17.046;2022-07-10T14:47:31;3.50;;;0.90;;
31716;SDS011;18301;51.076;17.046;2022-07-10T14:52:34;3.53;;;0.80;;
31716;SDS011;18301;51.076;17.046;2022-07-10T14:57:38;5.38;;;1.02;;
31716;SDS011;18301;51.076;17.046;2022-07-10T15:02:39;2.67;;;0.65;;
31716;SDS011;18301;51.076;17.046;2022-07-10T15:07:41;2.58;;;0.88;;
31716;SDS011;18301;51.076;17.046;2022-07-10T15:12:42;2.35;;;0.85;;
31716;SDS011;18301;51.076;17.046;2022-07-10T15:17:45;2.72;;;1.00;;
31716;SDS011;18301;51.076;17.046;2022-07-10T15:22:46;3.05;;;1.10;;
31716;SDS011;18301;51.076;17.046;2022-07-10T15:27:48;3.53;;;1.23;;
31716;SDS011;18301;51.076;17.046;2022-07-10T15:32:49;3.10;;;0.90;;
31716;SDS011;18301;51.076;17.046;2022-07-10T15:37:51;1.70;;;1.17;;
31716;SDS011;18301;51.076;17.046;2022-07-10T15:43:00;2.97;;;1.10;;
31716;SDS011;18301;51.076;17.046;2022-07-10T15:48:01;3.05;;;1.08;;
31716;SDS011;18301;51.076;17.046;2022-07-10T15:53:03;2.78;;;1.10;;
31716;SDS011;18301;51.076;17.046;2022-07-10T15:58:04;3.83;;;1.17;;
31716;SDS011;18301;51.076;17.046;2022-07-10T16:03:06;6.13;;;1.25;;
31716;SDS011;18301;51.076;17.046;2022-07-10T16:08:07;1.90;;;1.10;;
31716;SDS011;18301;51.076;17.046;2022-07-10T16:13:09;5.40;;;1.42;;
31716;SDS011;18301;51.076;17.046;2022-07-10T16:18:12;1.98;;;0.80;;
31716;SDS011;18301;51.076;17.046;2022-07-10T16:23:14;4.70;;;1.23;;
31716;SDS011;18301;51.076;17.046;2022-07-10T16:28:16;1.73;;;0.90;;
31716;SDS011;18301;51.076;17.046;2022-07-10T16:33:18;3.42;;;1.05;;
31716;SDS011;18301;51.076;17.046;2022-07-10T16:38:20;3.22;;;0.85;;
31716;SDS011;18301;51.076;17.046;2022-07-10T16:43:21;6.03;;;1.10;;
31716;SDS011;18301;51.076;17.046;2022-07-10T16:48:24;6.75;;;1.20;;
31716;SDS011;18301;51.076;17.046;2022-07-10T16:53:25;2.20;;;1.00;;
31716;SDS011;18301;51.076;17.046;2022-07-10T16:58:27;3.60;;;1.10;;
31716;SDS011;18301;51.076;17.046;2022-07-10T17:03:29;2.47;;;0.90;;
31716;SDS011;18301;51.076;17.046;2022-07-10T17:08:31;5.43;;;1.17;;
31716;SDS011;18301;51.076;17.046;2022-07-10T17:13:32;4.70;;;0.98;;
31716;SDS011;18301;51.076;17.046;2022-07-10T17:18:34;3.90;;;1.00;;
31716;SDS011;18301;51.076;17.046;2022-07-10T17:23:36;1.80;;;0.80;;
31716;SDS011;18301;51.076;17.046;2022-07-10T17:28:38;1.58;;;0.93;;
31716;SDS011;18301;51.076;17.046;2022-07-10T17:33:39;3.70;;;0.90;;
31716;SDS011;18301;51.076;17.046;2022-07-10T17:38:41;4.03;;;1.27;;
31716;SDS011;18301;51.076;17.046;2022-07-10T17:43:43;1.48;;;1.08;;
31716;SDS011;18301;51.076;17.046;2022-07-10T17:48:45;2.28;;;0.90;;
31716;SDS011;18301;51.076;17.046;2022-07-10T17:53:46;2.28;;;1.05;;
31716;SDS011;18301;51.076;17.046;2022-07-10T17:58:49;1.58;;;1.00;;
31716;SDS011;18301;51.076;17.046;2022-07-10T18:03:51;2.80;;;1.27;;
31716;SDS011;18301;51.076;17.046;2022-07-10T18:08:53;6.30;;;1.40;;
31716;SDS011;18301;51.076;17.046;2022-07-10T18:13:54;3.63;;;1.60;;
31716;SDS011;18301;51.076;17.046;2022-07-10T18:18:56;3.45;;;1.35;;
31716;SDS011;18301;51.076;17.046;2022-07-10T18:23:57;3.50;;;1.55;;
31716;SDS011;18301;51.076;17.046;2022-07-10T18:29:03;6.15;;;2.00;;
31716;SDS011;18301;51.076;17.046;2022-07-10T18:34:04;5.57;;;2.08;;
31716;SDS011;18301;51.076;17.046;2022-07-10T18:39:24;7.65;;;2.97;;
31716;SDS011;18301;51.076;17.046;2022-07-10T18:44:26;5.03;;;2.40;;
31716;SDS011;18301;51.076;17.046;2022-07-10T18:49:29;6.97;;;2.15;;
31716;SDS011;18301;51.076;17.046;2022-07-10T18:54:31;5.65;;;2.15;;
31716;SDS011;18301;51.076;17.046;2022-07-10T18:59:32;3.30;;;1.55;;
31716;SDS011;18301;51.076;17.046;2022-07-10T19:04:34;3.40;;;1.33;;
31716;SDS011;18301;51.076;17.046;2022-07-10T19:09:37;5.07;;;1.30;;
31716;SDS011;18301;51.076;17.046;2022-07-10T19:14:39;4.22;;;1.45;;
31716;SDS011;18301;51.076;17.046;2022-07-10T19:19:41;12.43;;;2.17;;
31716;SDS011;18301;51.076;17.046;2022-07-10T19:24:43;7.65;;;1.90;;
31716;SDS011;18301;51.076;17.046;2022-07-10T19:29:45;5.78;;;1.50;;
31716;SDS011;18301;51.076;17.046;2022-07-10T19:34:47;3.25;;;1.48;;
31716;SDS011;18301;51.076;17.046;2022-07-10T19:39:48;3.50;;;1.33;;
31716;SDS011;18301;51.076;17.046;2022-07-10T19:44:50;5.28;;;1.52;;
31716;SDS011;18301;51.076;17.046;2022-07-10T19:49:51;3.65;;;1.38;;
31716;SDS011;18301;51.076;17.046;2022-07-10T19:54:53;5.15;;;1.40;;
31716;SDS011;18301;51.076;17.046;2022-07-10T19:59:54;2.97;;;1.02;;
31716;SDS011;18301;51.076;17.046;2022-07-10T20:04:56;2.55;;;1.08;;
31716;SDS011;18301;51.076;17.046;2022-07-10T20:09:57;5.68;;;1.08;;
31716;SDS011;18301;51.076;17.046;2022-07-10T20:14:59;6.97;;;1.42;;
31716;SDS011;18301;51.076;17.046;2022-07-10T20:20:02;4.05;;;1.23;;
31716;SDS011;18301;51.076;17.046;2022-07-10T20:25:04;6.80;;;1.38;;
31716;SDS011;18301;51.076;17.046;2022-07-10T20:30:06;4.35;;;1.40;;
31716;SDS011;18301;51.076;17.046;2022-07-10T20:35:08;2.92;;;1.10;;
31716;SDS011;18301;51.076;17.046;2022-07-10T20:40:11;4.55;;;1.65;;
31716;SDS011;18301;51.076;17.046;2022-07-10T20:45:19;2.92;;;1.27;;
31716;SDS011;18301;51.076;17.046;2022-07-10T20:50:21;3.78;;;1.75;;
31716;SDS011;18301;51.076;17.046;2022-07-10T20:55:22;4.20;;;1.40;;
31716;SDS011;18301;51.076;17.046;2022-07-10T21:00:24;3.67;;;1.67;;
31716;SDS011;18301;51.076;17.046;2022-07-10T21:05:26;4.57;;;1.50;;
31716;SDS011;18301;51.076;17.046;2022-07-10T21:10:33;5.50;;;2.08;;
31716;SDS011;18301;51.076;17.046;2022-07-10T21:15:45;4.85;;;1.40;;
31716;SDS011;18301;51.076;17.046;2022-07-10T21:20:47;3.38;;;1.67;;
31716;SDS011;18301;51.076;17.046;2022-07-10T21:25:48;3.28;;;1.70;;
31716;SDS011;18301;51.076;17.046;2022-07-10T21:30:50;5.10;;;1.88;;
31716;SDS011;18301;51.076;17.046;2022-07-10T21:35:51;3.08;;;1.55;;
31716;SDS011;18301;51.076;17.046;2022-07-10T21:40:53;4.72;;;1.80;;
31716;SDS011;18301;51.076;17.046;2022-07-10T21:45:54;5.15;;;2.00;;
31716;SDS011;18301;51.076;17.046;2022-07-10T21:50:56;5.45;;;1.70;;
31716;SDS011;18301;51.076;17.046;2022-07-10T21:56:00;5.40;;;1.80;;
31716;SDS011;18301;51.076;17.046;2022-07-10T22:01:01;4.28;;;1.55;;
31716;SDS011;18301;51.076;17.046;2022-07-10T22:06:04;5.78;;;1.77;;
31716;SDS011;18301;51.076;17.046;2022-07-10T22:11:05;6.32;;;1.73;;
31716;SDS011;18301;51.076;17.046;2022-07-10T22:16:07;4.20;;;1.35;;
31716;SDS011;18301;51.076;17.046;2022-07-10T22:21:09;2.85;;;1.60;;
31716;SDS011;18301;51.076;17.046;2022-07-10T22:26:10;6.00;;;2.10;;
31716;SDS011;18301;51.076;17.046;2022-07-10T22:31:12;5.90;;;1.67;;
31716;SDS011;18301;51.076;17.046;2022-07-10T22:36:19;3.25;;;1.58;;
31716;SDS011;18301;51.076;17.046;2022-07-10T22:41:22;4.05;;;1.63;;
31716;SDS011;18301;51.076;17.046;2022-07-10T22:46:24;5.95;;;1.80;;
31716;SDS011;18301;51.076;17.046;2022-07-10T22:51:25;6.50;;;1.70;;
31716;SDS011;18301;51.076;17.046;2022-07-10T22:56:27;6.95;;;1.92;;
31716;SDS011;18301;51.076;17.046;2022-07-10T23:01:28;5.00;;;2.05;;
31716;SDS011;18301;51.076;17.046;2022-07-10T23:06:30;4.22;;;1.80;;
31716;SDS011;18301;51.076;17.046;2022-07-10T23:11:32;7.78;;;2.22;;
31716;SDS011;18301;51.076;17.046;2022-07-10T23:16:39;8.90;;;2.10;;
31716;SDS011;18301;51.076;17.046;2022-07-10T23:21:41;4.70;;;2.05;;
31716;SDS011;18301;51.076;17.046;2022-07-10T23:26:42;4.57;;;1.77;;
31716;SDS011;18301;51.076;17.046;2022-07-10T23:31:44;6.40;;;1.98;;
31716;SDS011;18301;51.076;17.046;2022-07-10T23:36:46;4.88;;;1.63;;
31716;SDS011;18301;51.076;17.046;2022-07-10T23:41:47;5.82;;;1.70;;
31716;SDS011;18301;51.076;17.046;2022-07-10T23:46:49;3.55;;;1.50;;
31716;SDS011;18301;51.076;17.046;2022-07-10T23:51:51;7.88;;;2.05;;
31716;SDS011;18301;51.076;17.046;2022-07-10T23:56:52;6.07;;;1.98;;
